createdAt,value
2023-05-19T04:00:47.012Z,1013.48
2023-05-19T04:01:47.996Z,1013.49
2023-05-19T04:02:48.079Z,1013.50
2023-05-19T04:03:47.996Z,1013.50
2023-05-19T04:04:48.095Z,1013.51
2023-05-19T04:05:47.957Z,1013.51
2023-05-19T04:06:47.978Z,1013.51
2023-05-19T04:07:47.931Z,1013.51
2023-05-19T04:08:47.963Z,1013.52
2023-05-19T04:09:47.918Z,1013.53
2023-05-19T04:10:47.919Z,1013.53
2023-05-19T04:11:47.885Z,1013.54
2023-05-19T04:12:47.989Z,1013.56
2023-05-19T04:13:47.894Z,1013.56
2023-05-19T04:14:47.850Z,1013.57
2023-05-19T04:15:47.873Z,1013.57
2023-05-19T04:16:47.841Z,1013.58
2023-05-19T04:17:47.889Z,1013.59
2023-05-19T04:18:47.854Z,1013.60
2023-05-19T04:19:47.801Z,1013.61
2023-05-19T04:20:47.798Z,1013.62
2023-05-19T04:21:47.817Z,1013.63
2023-05-19T04:22:47.782Z,1013.64
2023-05-19T04:23:47.757Z,1013.65
2023-05-19T04:24:47.743Z,1013.65
2023-05-19T04:25:47.736Z,1013.65
2023-05-19T04:26:47.712Z,1013.65
2023-05-19T04:27:47.742Z,1013.65
2023-05-19T04:28:47.701Z,1013.64
2023-05-19T04:29:47.695Z,1013.63
2023-05-19T04:30:47.725Z,1013.62
2023-05-19T04:31:47.681Z,1013.61
2023-05-19T04:32:47.711Z,1013.61
2023-05-19T04:33:47.644Z,1013.60
2023-05-19T04:34:47.659Z,1013.58
2023-05-19T04:35:47.635Z,1013.57
2023-05-19T04:36:47.650Z,1013.56
2023-05-19T04:37:47.611Z,1013.56
2023-05-19T04:38:47.633Z,1013.55
2023-05-19T04:39:47.586Z,1013.54
2023-05-19T04:40:47.573Z,1013.53
2023-05-19T04:41:47.584Z,1013.53
2023-05-19T04:42:47.560Z,1013.52
2023-05-19T04:43:47.550Z,1013.52
2023-05-19T04:44:47.528Z,1013.52
2023-05-19T04:45:47.529Z,1013.51
2023-05-19T04:46:47.600Z,1013.50
2023-05-19T04:47:47.544Z,1013.50
2023-05-19T04:48:47.491Z,1013.49
2023-05-19T04:49:47.481Z,1013.48
2023-05-19T04:50:47.481Z,1013.48
2023-05-19T04:51:47.478Z,1013.49
2023-05-19T04:52:47.449Z,1013.49
2023-05-19T04:53:47.442Z,1013.49
2023-05-19T04:54:47.423Z,1013.49
2023-05-19T04:55:47.457Z,1013.50
2023-05-19T04:56:47.416Z,1013.51
2023-05-19T04:57:47.458Z,1013.51
2023-05-19T04:58:47.404Z,1013.51
2023-05-19T04:59:47.402Z,1013.51
2023-05-19T05:00:47.404Z,1013.51
2023-05-19T05:01:47.420Z,1013.51
2023-05-19T05:02:47.421Z,1013.52
2023-05-19T05:03:47.387Z,1013.51
2023-05-19T05:04:47.349Z,1013.50
2023-05-19T05:05:47.335Z,1013.50
2023-05-19T05:06:47.355Z,1013.49
2023-05-19T05:07:47.351Z,1013.50
2023-05-19T05:08:47.375Z,1013.50
2023-05-19T05:09:47.353Z,1013.49
2023-05-19T05:10:47.270Z,1013.49
2023-05-19T05:11:47.283Z,1013.50
2023-05-19T05:12:47.250Z,1013.49
2023-05-19T05:13:47.307Z,1013.50
2023-05-19T05:14:47.302Z,1013.50
2023-05-19T05:15:47.287Z,1013.50
2023-05-19T05:16:47.397Z,1013.50
2023-05-19T05:17:47.224Z,1013.49
2023-05-19T05:18:47.234Z,1013.48
2023-05-19T05:19:47.162Z,1013.48
2023-05-19T05:20:47.150Z,1013.47
2023-05-19T05:21:47.142Z,1013.48
2023-05-19T05:22:47.133Z,1013.48
2023-05-19T05:23:47.145Z,1013.49
2023-05-19T05:24:47.113Z,1013.50
2023-05-19T05:25:47.090Z,1013.50
2023-05-19T05:26:47.089Z,1013.50
2023-05-19T05:27:47.073Z,1013.52
2023-05-19T05:28:47.107Z,1013.52
2023-05-19T05:29:47.050Z,1013.53
2023-05-19T05:30:47.054Z,1013.54
2023-05-19T05:31:47.022Z,1013.54
2023-05-19T05:32:47.120Z,1013.53
2023-05-19T05:33:47.077Z,1013.53
2023-05-19T05:34:46.997Z,1013.53
2023-05-19T05:35:47.002Z,1013.53
2023-05-19T05:36:46.987Z,1013.52
2023-05-19T05:37:47.033Z,1013.53
2023-05-19T05:38:46.969Z,1013.53
2023-05-19T05:39:46.954Z,1013.53
2023-05-19T05:40:46.949Z,1013.53
2023-05-19T05:41:46.922Z,1013.53
2023-05-19T05:42:46.924Z,1013.52
2023-05-19T05:43:46.914Z,1013.52
2023-05-19T05:44:46.891Z,1013.52
2023-05-19T05:45:46.900Z,1013.52
2023-05-19T05:46:46.876Z,1013.52
2023-05-19T05:47:47.005Z,1013.52
2023-05-19T05:48:46.849Z,1013.52
2023-05-19T05:49:46.853Z,1013.51
2023-05-19T05:50:46.826Z,1013.50
2023-05-19T05:51:54.688Z,1013.50
2023-05-19T05:52:46.825Z,1013.51
2023-05-19T05:53:46.803Z,1013.51
2023-05-19T05:54:46.781Z,1013.50
2023-05-19T05:55:46.770Z,1013.50
2023-05-19T05:56:46.769Z,1013.50
2023-05-19T05:57:46.762Z,1013.49
2023-05-19T05:58:46.745Z,1013.49
2023-05-19T05:59:46.735Z,1013.49
2023-05-19T06:00:46.717Z,1013.49
2023-05-19T06:01:46.736Z,1013.50
2023-05-19T06:02:46.791Z,1013.49
2023-05-19T06:03:46.720Z,1013.49
2023-05-19T06:04:46.672Z,1013.51
2023-05-19T06:05:46.780Z,1013.53
2023-05-19T06:06:46.664Z,1013.54
2023-05-19T06:07:46.676Z,1013.55
2023-05-19T06:08:46.632Z,1013.55
2023-05-19T06:09:46.634Z,1013.53
2023-05-19T06:10:47.490Z,1013.55
2023-05-19T06:11:46.610Z,1013.53
2023-05-19T06:12:46.594Z,1013.54
2023-05-19T06:13:46.602Z,1013.54
2023-05-19T06:14:46.587Z,1013.54
2023-05-19T06:15:46.610Z,1013.54
2023-05-19T06:16:46.548Z,1013.51
2023-05-19T06:17:46.596Z,1013.52
2023-05-19T06:18:46.568Z,1013.53
2023-05-19T06:19:46.516Z,1013.52
2023-05-19T06:20:46.504Z,1013.51
2023-05-19T06:21:46.494Z,1013.51
2023-05-19T06:22:46.479Z,1013.49
2023-05-19T06:23:46.496Z,1013.50
2023-05-19T06:24:46.464Z,1013.50
2023-05-19T06:25:46.475Z,1013.49
2023-05-19T06:26:46.432Z,1013.48
2023-05-19T06:27:46.451Z,1013.51
2023-05-19T06:28:46.426Z,1013.50
2023-05-19T06:29:46.407Z,1013.51
2023-05-19T06:30:46.403Z,1013.51
2023-05-19T06:31:46.547Z,1013.51
2023-05-19T06:32:46.430Z,1013.50
2023-05-19T06:33:46.365Z,1013.48
2023-05-19T06:34:46.342Z,1013.47
2023-05-19T06:35:46.341Z,1013.46
2023-05-19T06:36:46.318Z,1013.43
2023-05-19T06:37:46.313Z,1013.41
2023-05-19T06:38:46.308Z,1013.41
2023-05-19T06:39:46.323Z,1013.42
2023-05-19T06:40:46.286Z,1013.42
2023-05-19T06:41:46.277Z,1013.40
2023-05-19T06:42:46.256Z,1013.41
2023-05-19T06:43:46.276Z,1013.43
2023-05-19T06:44:46.254Z,1013.43
2023-05-19T06:45:46.234Z,1013.44
2023-05-19T06:46:46.289Z,1013.46
2023-05-19T06:47:46.214Z,1013.47
2023-05-19T06:48:46.221Z,1013.48
2023-05-19T06:49:46.200Z,1013.47
2023-05-19T06:50:46.188Z,1013.48
2023-05-19T06:51:46.189Z,1013.45
2023-05-19T06:52:46.153Z,1013.44
2023-05-19T06:53:46.151Z,1013.41
2023-05-19T06:54:46.135Z,1013.40
2023-05-19T06:55:58.013Z,1013.38
2023-05-19T06:56:46.117Z,1013.39
2023-05-19T06:57:46.110Z,1013.37
2023-05-19T06:58:46.106Z,1013.36
2023-05-19T06:59:46.076Z,1013.36
2023-05-19T07:00:46.063Z,1013.36
2023-05-19T07:01:46.083Z,1013.36
2023-05-19T07:02:46.132Z,1013.37
2023-05-19T07:03:46.165Z,1013.37
2023-05-19T07:04:46.036Z,1013.35
2023-05-19T07:05:46.014Z,1013.34
2023-05-19T07:06:46.013Z,1013.36
2023-05-19T07:07:46.016Z,1013.35
2023-05-19T07:08:46.019Z,1013.34
2023-05-19T07:09:45.996Z,1013.34
2023-05-19T07:10:45.965Z,1013.34
2023-05-19T07:11:45.950Z,1013.34
2023-05-19T07:12:45.958Z,1013.35
2023-05-19T07:13:45.937Z,1013.35
2023-05-19T07:14:45.913Z,1013.35
2023-05-19T07:15:45.913Z,1013.34
2023-05-19T07:16:45.967Z,1013.35
2023-05-19T07:17:45.983Z,1013.35
2023-05-19T07:18:45.924Z,1013.35
2023-05-19T07:19:45.883Z,1013.35
2023-05-19T07:20:45.856Z,1013.34
2023-05-19T07:21:45.863Z,1013.35
2023-05-19T07:22:45.848Z,1013.35
2023-05-19T07:23:45.827Z,1013.34
2023-05-19T07:24:45.830Z,1013.36
2023-05-19T07:25:45.814Z,1013.31
2023-05-19T07:26:45.813Z,1013.33
2023-05-19T07:27:45.777Z,1013.32
2023-05-19T07:28:45.793Z,1013.32
2023-05-19T07:29:45.768Z,1013.32
2023-05-19T07:30:45.746Z,1013.32
2023-05-19T07:31:45.764Z,1013.30
2023-05-19T07:32:45.747Z,1013.31
2023-05-19T07:33:45.735Z,1013.32
2023-05-19T07:34:45.707Z,1013.33
2023-05-19T07:35:45.696Z,1013.31
2023-05-19T07:36:45.683Z,1013.30
2023-05-19T07:37:45.713Z,1013.31
2023-05-19T07:38:45.684Z,1013.32
2023-05-19T07:39:45.645Z,1013.31
2023-05-19T07:40:45.638Z,1013.30
2023-05-19T07:41:45.627Z,1013.30
2023-05-19T07:42:45.621Z,1013.31
2023-05-19T07:43:45.595Z,1013.32
2023-05-19T07:44:45.599Z,1013.31
2023-05-19T07:45:45.604Z,1013.31
2023-05-19T07:46:45.570Z,1013.29
2023-05-19T07:47:45.602Z,1013.29
2023-05-19T07:48:45.540Z,1013.28
2023-05-19T07:49:45.533Z,1013.25
2023-05-19T07:50:45.559Z,1013.28
2023-05-19T07:51:45.503Z,1013.25
2023-05-19T07:52:45.494Z,1013.27
2023-05-19T07:53:45.483Z,1013.24
2023-05-19T07:54:45.487Z,1013.25
2023-05-19T07:55:45.466Z,1013.23
2023-05-19T07:56:45.475Z,1013.25
2023-05-19T07:57:45.444Z,1013.23
2023-05-19T07:58:45.433Z,1013.20
2023-05-19T07:59:45.436Z,1013.22
2023-05-19T08:00:45.410Z,1013.21
2023-05-19T08:01:45.427Z,1013.22
2023-05-19T08:02:45.416Z,1013.23
2023-05-19T08:03:45.402Z,1013.24
2023-05-19T08:04:45.408Z,1013.22
2023-05-19T08:05:45.391Z,1013.24
2023-05-19T08:06:45.341Z,1013.20
2023-05-19T08:07:45.336Z,1013.25
2023-05-19T08:08:45.314Z,1013.22
2023-05-19T08:09:45.351Z,1013.22
2023-05-19T08:10:45.304Z,1013.22
2023-05-19T08:11:45.307Z,1013.23
2023-05-19T08:12:45.272Z,1013.23
2023-05-19T08:13:45.302Z,1013.22
2023-05-19T08:14:45.272Z,1013.20
2023-05-19T08:15:45.269Z,1013.19
2023-05-19T08:16:45.236Z,1013.16
2023-05-19T08:17:45.240Z,1013.14
2023-05-19T08:18:45.239Z,1013.10
2023-05-19T08:19:45.220Z,1013.11
2023-05-19T08:20:45.201Z,1013.08
2023-05-19T08:21:45.186Z,1013.10
2023-05-19T08:22:45.181Z,1013.08
2023-05-19T08:23:45.180Z,1013.08
2023-05-19T08:24:45.148Z,1013.08
2023-05-19T08:25:45.143Z,1013.07
2023-05-19T08:26:45.138Z,1013.11
2023-05-19T08:27:45.162Z,1013.06
2023-05-19T08:28:45.103Z,1013.07
2023-05-19T08:29:45.117Z,1013.07
2023-05-19T08:30:45.087Z,1013.07
2023-05-19T08:31:45.141Z,1013.06
2023-05-19T08:32:45.112Z,1013.07
2023-05-19T08:33:45.089Z,1013.11
2023-05-19T08:34:45.071Z,1013.09
2023-05-19T08:35:45.027Z,1013.06
2023-05-19T08:36:45.028Z,1013.05
2023-05-19T08:37:45.055Z,1013.02
2023-05-19T08:38:45.026Z,1013.01
2023-05-19T08:39:45.023Z,1012.99
2023-05-19T08:40:44.988Z,1012.98
2023-05-19T08:41:45.001Z,1012.93
2023-05-19T08:42:44.978Z,1012.94
2023-05-19T08:43:44.961Z,1012.93
2023-05-19T08:44:44.976Z,1012.90
2023-05-19T08:45:44.964Z,1012.88
2023-05-19T08:46:44.966Z,1012.91
2023-05-19T08:47:44.983Z,1012.88
2023-05-19T08:48:44.902Z,1012.89
2023-05-19T08:49:44.895Z,1012.88
2023-05-19T08:50:44.885Z,1012.88
2023-05-19T08:51:44.880Z,1012.87
2023-05-19T08:52:46.856Z,1012.91
2023-05-19T08:53:44.842Z,1012.91
2023-05-19T08:54:44.854Z,1012.83
2023-05-19T08:55:44.817Z,1012.81
2023-05-19T08:56:44.817Z,1012.80
2023-05-19T08:57:44.813Z,1012.78
2023-05-19T08:58:44.884Z,1012.76
2023-05-19T08:59:44.780Z,1012.76
2023-05-19T09:00:44.788Z,1012.76
2023-05-19T09:01:44.769Z,1012.74
2023-05-19T09:02:55.033Z,1012.74
2023-05-19T09:03:44.793Z,1012.74
2023-05-19T09:04:44.804Z,1012.69
2023-05-19T09:05:44.913Z,1012.68
2023-05-19T09:06:44.710Z,1012.68
2023-05-19T09:07:44.688Z,1012.66
2023-05-19T09:08:44.684Z,1012.64
2023-05-19T09:09:44.672Z,1012.68
2023-05-19T09:10:44.679Z,1012.65
2023-05-19T09:11:44.720Z,1012.66
2023-05-19T09:12:44.630Z,1012.64
2023-05-19T09:13:44.640Z,1012.62
2023-05-19T09:14:44.606Z,1012.64
2023-05-19T09:15:44.617Z,1012.62
2023-05-19T09:16:44.621Z,1012.60
2023-05-19T09:17:44.658Z,1012.61
2023-05-19T09:18:44.585Z,1012.59
2023-05-19T09:19:44.557Z,1012.57
2023-05-19T09:20:44.568Z,1012.54
2023-05-19T09:21:44.676Z,1012.55
2023-05-19T09:22:44.540Z,1012.53
2023-05-19T09:23:44.512Z,1012.52
2023-05-19T09:24:44.540Z,1012.51
2023-05-19T09:25:44.526Z,1012.51
2023-05-19T09:26:44.484Z,1012.48
2023-05-19T09:27:44.459Z,1012.45
2023-05-19T09:28:44.469Z,1012.44
2023-05-19T09:29:44.474Z,1012.46
2023-05-19T09:30:44.443Z,1012.44
2023-05-19T09:31:44.479Z,1012.44
2023-05-19T09:32:44.488Z,1012.44
2023-05-19T09:33:46.039Z,1012.39
2023-05-19T09:34:44.441Z,1012.40
2023-05-19T09:35:44.384Z,1012.39
2023-05-19T09:36:44.383Z,1012.40
2023-05-19T09:37:44.362Z,1012.41
2023-05-19T09:38:44.387Z,1012.42
2023-05-19T09:39:44.373Z,1012.42
2023-05-19T09:40:44.326Z,1012.36
2023-05-19T09:41:44.307Z,1012.35
2023-05-19T09:42:44.313Z,1012.35
2023-05-19T09:43:44.325Z,1012.31
2023-05-19T09:44:44.282Z,1012.32
2023-05-19T09:45:44.293Z,1012.30
2023-05-19T09:46:44.377Z,1012.23
2023-05-19T09:47:44.302Z,1012.25
2023-05-19T09:48:44.251Z,1012.27
2023-05-19T09:49:44.235Z,1012.27
2023-05-19T09:50:44.226Z,1012.26
2023-05-19T09:51:44.202Z,1012.26
2023-05-19T09:52:44.227Z,1012.21
2023-05-19T09:53:44.212Z,1012.24
2023-05-19T09:54:44.248Z,1012.21
2023-05-19T09:55:44.172Z,1012.19
2023-05-19T09:56:44.166Z,1012.19
2023-05-19T09:57:44.156Z,1012.18
2023-05-19T09:58:44.129Z,1012.16
2023-05-19T09:59:44.123Z,1012.17
2023-05-19T10:00:44.120Z,1012.13
2023-05-19T10:01:44.250Z,1012.16
2023-05-19T10:02:44.136Z,1012.16
2023-05-19T10:03:44.078Z,1012.13
2023-05-19T10:04:44.119Z,1012.14
2023-05-19T10:05:44.071Z,1012.15
2023-05-19T10:06:44.078Z,1012.14
2023-05-19T10:07:44.068Z,1012.13
2023-05-19T10:08:44.027Z,1012.11
2023-05-19T10:09:44.009Z,1012.07
2023-05-19T10:10:44.018Z,1012.08
2023-05-19T10:11:44.027Z,1012.07
2023-05-19T10:12:43.990Z,1012.11
2023-05-19T10:13:43.975Z,1012.12
2023-05-19T10:14:43.964Z,1012.10
2023-05-19T10:15:57.372Z,1012.10
2023-05-19T10:16:43.991Z,1012.08
2023-05-19T10:17:43.965Z,1012.09
2023-05-19T10:18:43.985Z,1012.06
2023-05-19T10:19:43.928Z,1012.04
2023-05-19T10:20:43.910Z,1012.02
2023-05-19T10:21:43.912Z,1012.00
2023-05-19T10:22:43.905Z,1012.00
2023-05-19T10:23:43.866Z,1011.97
2023-05-19T10:24:43.874Z,1011.97
2023-05-19T10:25:43.870Z,1011.94
2023-05-19T10:26:43.837Z,1011.94
2023-05-19T10:27:43.821Z,1011.87
2023-05-19T10:28:43.812Z,1011.89
2023-05-19T10:29:43.803Z,1011.90
2023-05-19T10:30:43.812Z,1011.90
2023-05-19T10:31:43.804Z,1011.89
2023-05-19T10:32:43.781Z,1011.89
2023-05-19T10:33:43.772Z,1011.89
2023-05-19T10:34:43.764Z,1011.85
2023-05-19T10:35:45.321Z,1011.86
2023-05-19T10:36:43.731Z,1011.84
2023-05-19T10:37:43.725Z,1011.84
2023-05-19T10:38:43.715Z,1011.87
2023-05-19T10:39:43.718Z,1011.88
2023-05-19T10:40:43.688Z,1011.86
2023-05-19T10:41:44.998Z,1011.88
2023-05-19T10:42:43.670Z,1011.91
2023-05-19T10:43:43.651Z,1011.89
2023-05-19T10:44:43.659Z,1011.91
2023-05-19T10:45:43.628Z,1011.90
2023-05-19T10:46:43.678Z,1011.92
2023-05-19T10:47:43.663Z,1011.93
2023-05-19T10:48:43.616Z,1011.92
2023-05-19T10:49:43.596Z,1011.92
2023-05-19T10:50:43.580Z,1011.94
2023-05-19T10:51:43.569Z,1011.91
2023-05-19T10:52:43.551Z,1011.89
2023-05-19T10:53:43.561Z,1011.95
2023-05-19T10:54:43.758Z,1011.94
2023-05-19T10:55:43.530Z,1011.97
2023-05-19T10:56:43.520Z,1011.95
2023-05-19T10:57:43.504Z,1011.95
2023-05-19T10:58:43.557Z,1011.91
2023-05-19T10:59:43.489Z,1011.88
2023-05-19T11:00:43.490Z,1011.81
2023-05-19T11:01:43.529Z,1011.75
2023-05-19T11:02:43.514Z,1011.83
2023-05-19T11:03:43.460Z,1011.77
2023-05-19T11:04:43.436Z,1011.80
2023-05-19T11:05:43.419Z,1011.79
2023-05-19T11:06:43.405Z,1011.80
2023-05-19T11:07:43.453Z,1011.80
2023-05-19T11:08:43.395Z,1011.81
2023-05-19T11:09:43.386Z,1011.75
2023-05-19T11:10:43.368Z,1011.81
2023-05-19T11:11:43.349Z,1011.77
2023-05-19T11:12:43.384Z,1011.78
2023-05-19T11:13:43.339Z,1011.76
2023-05-19T11:14:43.321Z,1011.71
2023-05-19T11:15:43.317Z,1011.71
2023-05-19T11:16:43.379Z,1011.71
2023-05-19T11:17:43.370Z,1011.72
2023-05-19T11:18:43.336Z,1011.74
2023-05-19T11:19:43.288Z,1011.72
2023-05-19T11:20:43.297Z,1011.72
2023-05-19T11:21:43.277Z,1011.71
2023-05-19T11:22:43.253Z,1011.68
2023-05-19T11:23:43.268Z,1011.66
2023-05-19T11:24:43.224Z,1011.66
2023-05-19T11:25:43.200Z,1011.65
2023-05-19T11:26:43.283Z,1011.64
2023-05-19T11:27:43.177Z,1011.60
2023-05-19T11:28:43.172Z,1011.60
2023-05-19T11:29:43.164Z,1011.62
2023-05-19T11:30:43.181Z,1011.67
2023-05-19T11:31:43.223Z,1011.66
2023-05-19T11:32:43.239Z,1011.66
2023-05-19T11:33:43.122Z,1011.64
2023-05-19T11:34:43.110Z,1011.62
2023-05-19T11:35:43.110Z,1011.62
2023-05-19T11:36:43.145Z,1011.57
2023-05-19T11:37:43.088Z,1011.56
2023-05-19T11:38:43.082Z,1011.55
2023-05-19T11:39:43.059Z,1011.59
2023-05-19T11:40:43.072Z,1011.59
2023-05-19T11:41:43.026Z,1011.55
2023-05-19T11:42:43.024Z,1011.54
2023-05-19T11:43:43.012Z,1011.58
2023-05-19T11:44:43.029Z,1011.57
2023-05-19T11:45:42.988Z,1011.56
2023-05-19T11:46:43.045Z,1011.59
2023-05-19T11:48:00.221Z,1011.58
2023-05-19T11:48:42.999Z,1011.53
2023-05-19T11:49:42.978Z,1011.54
2023-05-19T11:50:42.953Z,1011.53
2023-05-19T11:51:42.922Z,1011.52
2023-05-19T11:52:42.913Z,1011.51
2023-05-19T11:53:42.900Z,1011.51
2023-05-19T11:54:42.950Z,1011.51
2023-05-19T11:55:42.888Z,1011.53
2023-05-19T11:56:42.873Z,1011.50
2023-05-19T11:57:47.043Z,1011.56
2023-05-19T11:58:42.907Z,1011.57
2023-05-19T11:59:42.859Z,1011.56
2023-05-19T12:00:42.844Z,1011.55
2023-05-19T12:01:42.818Z,1011.54
2023-05-19T12:02:42.888Z,1011.50
2023-05-19T12:03:42.897Z,1011.49
2023-05-19T12:04:42.847Z,1011.49
2023-05-19T12:05:43.669Z,1011.49
2023-05-19T12:06:42.812Z,1011.53
2023-05-19T12:07:42.750Z,1011.55
2023-05-19T12:08:42.803Z,1011.53
2023-05-19T12:09:42.726Z,1011.49
2023-05-19T12:10:42.726Z,1011.49
2023-05-19T12:11:42.709Z,1011.50
2023-05-19T12:12:42.704Z,1011.51
2023-05-19T12:13:42.705Z,1011.53
2023-05-19T12:14:42.677Z,1011.52
2023-05-19T12:15:42.666Z,1011.49
2023-05-19T12:16:42.720Z,1011.46
2023-05-19T12:17:42.709Z,1011.46
2023-05-19T12:18:42.741Z,1011.44
2023-05-19T12:19:42.631Z,1011.39
2023-05-19T12:20:42.616Z,1011.43
2023-05-19T12:21:42.637Z,1011.39
2023-05-19T12:22:42.603Z,1011.39
2023-05-19T12:23:42.598Z,1011.41
2023-05-19T12:24:42.574Z,1011.43
2023-05-19T12:25:42.554Z,1011.43
2023-05-19T12:26:42.595Z,1011.40
2023-05-19T12:27:42.556Z,1011.40
2023-05-19T12:28:42.531Z,1011.41
2023-05-19T12:29:42.520Z,1011.38
2023-05-19T12:30:42.509Z,1011.37
2023-05-19T12:31:42.555Z,1011.42
2023-05-19T12:32:42.561Z,1011.38
2023-05-19T12:33:42.481Z,1011.35
2023-05-19T12:34:42.473Z,1011.33
2023-05-19T12:35:42.452Z,1011.33
2023-05-19T12:36:42.482Z,1011.28
2023-05-19T12:37:42.434Z,1011.21
2023-05-19T12:38:42.439Z,1011.23
2023-05-19T12:39:42.419Z,1011.21
2023-05-19T12:40:42.418Z,1011.20
2023-05-19T12:41:42.401Z,1011.20
2023-05-19T12:42:42.382Z,1011.19
2023-05-19T12:43:42.370Z,1011.21
2023-05-19T12:44:42.381Z,1011.17
2023-05-19T12:45:42.441Z,1011.18
2023-05-19T12:46:42.349Z,1011.19
2023-05-19T12:47:42.384Z,1011.18
2023-05-19T12:48:42.323Z,1011.17
2023-05-19T12:49:42.347Z,1011.13
2023-05-19T12:50:42.309Z,1011.17
2023-05-19T12:51:42.316Z,1011.17
2023-05-19T12:52:42.270Z,1011.14
2023-05-19T12:53:42.285Z,1011.08
2023-05-19T12:54:42.340Z,1011.14
2023-05-19T12:55:42.285Z,1011.11
2023-05-19T12:56:42.228Z,1011.13
2023-05-19T12:57:42.237Z,1011.13
2023-05-19T12:58:42.233Z,1011.08
2023-05-19T12:59:42.207Z,1011.11
2023-05-19T13:00:42.495Z,1011.05
2023-05-19T13:01:42.244Z,1011.06
2023-05-19T13:02:42.263Z,1011.06
2023-05-19T13:03:42.301Z,1011.13
2023-05-19T13:04:42.193Z,1011.14
2023-05-19T13:05:42.142Z,1011.12
2023-05-19T13:06:42.165Z,1011.13
2023-05-19T13:07:42.135Z,1011.10
2023-05-19T13:08:42.112Z,1011.10
2023-05-19T13:09:42.119Z,1011.08
2023-05-19T13:10:42.081Z,1011.11
2023-05-19T13:11:42.077Z,1011.08
2023-05-19T13:12:42.095Z,1011.09
2023-05-19T13:13:42.061Z,1011.07
2023-05-19T13:14:42.043Z,1011.05
2023-05-19T13:15:42.045Z,1011.05
2023-05-19T13:16:42.051Z,1011.06
2023-05-19T13:17:42.041Z,1011.03
2023-05-19T13:18:42.101Z,1011.02
2023-05-19T13:19:42.094Z,1011.01
2023-05-19T13:20:41.985Z,1011.03
2023-05-19T13:21:41.964Z,1011.04
2023-05-19T13:22:41.962Z,1011.02
2023-05-19T13:23:41.981Z,1011.04
2023-05-19T13:24:41.940Z,1011.07
2023-05-19T13:25:41.942Z,1011.04
2023-05-19T13:26:41.917Z,1011.12
2023-05-19T13:27:41.908Z,1011.10
2023-05-19T13:28:41.926Z,1011.10
2023-05-19T13:29:41.890Z,1011.15
2023-05-19T13:30:42.039Z,1011.17
2023-05-19T13:31:41.946Z,1011.09
2023-05-19T13:32:41.861Z,1011.10
2023-05-19T13:33:41.853Z,1011.06
2023-05-19T13:34:41.832Z,1011.04
2023-05-19T13:35:41.866Z,1010.95
2023-05-19T13:36:41.881Z,1011.02
2023-05-19T13:37:41.995Z,1011.01
2023-05-19T13:38:41.790Z,1011.05
2023-05-19T13:39:41.788Z,1011.02
2023-05-19T13:40:41.788Z,1010.98
2023-05-19T13:41:41.753Z,1010.96
2023-05-19T13:42:41.741Z,1010.94
2023-05-19T13:43:41.738Z,1011.00
2023-05-19T13:44:41.742Z,1011.03
2023-05-19T13:45:41.715Z,1010.99
2023-05-19T13:46:45.604Z,1011.01
2023-05-19T13:47:41.767Z,1011.04
2023-05-19T13:48:41.680Z,1011.02
2023-05-19T13:49:41.698Z,1010.99
2023-05-19T13:50:41.659Z,1011.00
2023-05-19T13:51:41.673Z,1010.93
2023-05-19T13:52:41.642Z,1010.95
2023-05-19T13:53:41.661Z,1010.97
2023-05-19T13:54:41.615Z,1010.93
2023-05-19T13:55:41.617Z,1010.93
2023-05-19T13:56:41.609Z,1010.91
2023-05-19T13:57:44.027Z,1010.90
2023-05-19T13:58:41.573Z,1010.88
2023-05-19T13:59:53.323Z,1010.87
2023-05-19T14:00:41.550Z,1010.88
2023-05-19T14:01:41.606Z,1010.89
2023-05-19T14:02:41.625Z,1010.87
2023-05-19T14:03:41.614Z,1010.88
2023-05-19T14:04:41.515Z,1010.83
2023-05-19T14:05:41.526Z,1010.79
2023-05-19T14:06:41.515Z,1010.79
2023-05-19T14:07:41.489Z,1010.80
2023-05-19T14:08:41.474Z,1010.84
2023-05-19T14:09:41.471Z,1010.79
2023-05-19T14:10:41.493Z,1010.81
2023-05-19T14:11:41.433Z,1010.82
2023-05-19T14:13:08.048Z,1010.83
2023-05-19T14:13:43.299Z,1010.83
2023-05-19T14:14:41.406Z,1010.79
2023-05-19T14:15:41.502Z,1010.80
2023-05-19T14:16:41.395Z,1010.85
2023-05-19T14:17:41.571Z,1010.85
2023-05-19T14:18:41.410Z,1010.86
2023-05-19T14:19:41.393Z,1010.84
2023-05-19T14:20:41.373Z,1010.83
2023-05-19T14:21:41.330Z,1010.81
2023-05-19T14:22:41.368Z,1010.78
2023-05-19T14:23:41.321Z,1010.79
2023-05-19T14:24:41.295Z,1010.78
2023-05-19T14:25:41.303Z,1010.81
2023-05-19T14:26:41.332Z,1010.75
2023-05-19T14:27:41.270Z,1010.79
2023-05-19T14:28:41.245Z,1010.81
2023-05-19T14:29:41.343Z,1010.80
2023-05-19T14:30:41.226Z,1010.79
2023-05-19T14:31:41.253Z,1010.78
2023-05-19T14:32:41.227Z,1010.77
2023-05-19T14:33:41.215Z,1010.78
2023-05-19T14:34:41.202Z,1010.78
2023-05-19T14:35:41.167Z,1010.75
2023-05-19T14:36:41.158Z,1010.74
2023-05-19T14:37:41.148Z,1010.74
2023-05-19T14:38:41.184Z,1010.77
2023-05-19T14:39:41.157Z,1010.74
2023-05-19T14:40:41.113Z,1010.81
2023-05-19T14:41:41.104Z,1010.77
2023-05-19T14:42:41.099Z,1010.82
2023-05-19T14:43:41.109Z,1010.79
2023-05-19T14:44:41.086Z,1010.77
2023-05-19T14:45:41.064Z,1010.80
2023-05-19T14:46:41.108Z,1010.80
2023-05-19T14:47:41.072Z,1010.79
2023-05-19T14:48:41.081Z,1010.83
2023-05-19T14:49:41.030Z,1010.84
2023-05-19T14:50:41.009Z,1010.86
2023-05-19T14:51:41.000Z,1010.88
2023-05-19T14:52:41.060Z,1010.88
2023-05-19T14:53:41.015Z,1010.88
2023-05-19T14:54:40.982Z,1010.87
2023-05-19T14:55:40.965Z,1010.88
2023-05-19T14:56:41.042Z,1010.86
2023-05-19T14:57:40.995Z,1010.82
2023-05-19T14:58:40.933Z,1010.79
2023-05-19T14:59:40.904Z,1010.77
2023-05-19T15:00:40.909Z,1010.78
2023-05-19T15:01:41.030Z,1010.76
2023-05-19T15:02:40.916Z,1010.84
2023-05-19T15:03:40.882Z,1010.76
2023-05-19T15:04:40.847Z,1010.76
2023-05-19T15:05:40.847Z,1010.82
2023-05-19T15:06:40.852Z,1010.82
2023-05-19T15:07:40.866Z,1010.82
2023-05-19T15:08:40.836Z,1010.85
2023-05-19T15:09:40.807Z,1010.85
2023-05-19T15:10:40.782Z,1010.85
2023-05-19T15:11:40.821Z,1010.83
2023-05-19T15:12:40.777Z,1010.83
2023-05-19T15:13:40.766Z,1010.81
2023-05-19T15:14:40.750Z,1010.80
2023-05-19T15:15:40.738Z,1010.78
2023-05-19T15:16:40.789Z,1010.75
2023-05-19T15:17:40.747Z,1010.77
2023-05-19T15:18:40.788Z,1010.79
2023-05-19T15:19:40.692Z,1010.78
2023-05-19T15:20:40.676Z,1010.71
2023-05-19T15:21:40.699Z,1010.70
2023-05-19T15:22:40.653Z,1010.72
2023-05-19T15:23:40.657Z,1010.68
2023-05-19T15:24:40.632Z,1010.66
2023-05-19T15:25:40.665Z,1010.65
2023-05-19T15:26:40.636Z,1010.65
2023-05-19T15:27:40.612Z,1010.64
2023-05-19T15:28:40.684Z,1010.63
2023-05-19T15:29:40.591Z,1010.61
2023-05-19T15:30:40.627Z,1010.60
2023-05-19T15:31:40.703Z,1010.59
2023-05-19T15:32:40.563Z,1010.60
2023-05-19T15:33:40.534Z,1010.60
2023-05-19T15:34:40.529Z,1010.58
2023-05-19T15:35:40.542Z,1010.61
2023-05-19T15:36:40.502Z,1010.61
2023-05-19T15:37:40.511Z,1010.58
2023-05-19T15:38:40.505Z,1010.62
2023-05-19T15:39:40.502Z,1010.59
2023-05-19T15:40:40.465Z,1010.57
2023-05-19T15:41:40.433Z,1010.58
2023-05-19T15:42:40.429Z,1010.58
2023-05-19T15:43:40.419Z,1010.58
2023-05-19T15:44:40.458Z,1010.65
2023-05-19T15:45:40.399Z,1010.60
2023-05-19T15:46:40.430Z,1010.65
2023-05-19T15:47:40.403Z,1010.65
2023-05-19T15:48:40.359Z,1010.65
2023-05-19T15:49:40.398Z,1010.65
2023-05-19T15:50:40.348Z,1010.62
2023-05-19T15:51:40.350Z,1010.63
2023-05-19T15:52:40.317Z,1010.60
2023-05-19T15:53:40.336Z,1010.59
2023-05-19T15:54:40.297Z,1010.57
2023-05-19T15:55:40.290Z,1010.57
2023-05-19T15:56:40.275Z,1010.57
2023-05-19T15:57:40.273Z,1010.55
2023-05-19T15:58:40.288Z,1010.54
2023-05-19T15:59:40.246Z,1010.53
2023-05-19T16:00:40.231Z,1010.53
2023-05-19T16:01:40.243Z,1010.52
2023-05-19T16:02:40.283Z,1010.51
2023-05-19T16:03:40.402Z,1010.49
2023-05-19T16:04:40.187Z,1010.50
2023-05-19T16:05:40.184Z,1010.49